Time;durP1;ratioP1;P1;durP2;ratioP2;P2;SDS_P1;SDS_P2;PMS_P1;PMS_P2;Temp;Humidity;BMP_temperature;BMP_pressure;BME280_temperature;BME280_humidity;BME280_pressure;Samples;Min_cycle;Max_cycle;Signal;HPM_P1;HPM_P2
2023/09/10 00:09:38;;;;;;;3.30;2.40;;;;;;;25.10;46.34;100652.16;42089528;27;20040;-79
2023/09/10 00:29:41;;;;;;;3.90;2.80;;;;;;;24.58;46.16;100556.16;42084948;27;20066;-79
2023/09/10 00:49:43;;;;;;;3.00;2.70;;;;;;;25.12;46.30;100648.53;42078871;28;20052;-78
2023/09/10 01:09:44;;;;;;;3.22;2.70;;;;;;;25.03;46.28;100640.44;42075097;28;20044;-78
2023/09/10 01:29:44;;;;;;;3.10;2.80;;;;;;;25.18;46.07;100667.38;42077283;28;20071;-78
2023/09/10 01:49:45;;;;;;;3.10;2.80;;;;;;;25.00;45.96;100635.41;42101892;28;20114;-79
2023/09/10 02:09:45;;;;;;;2.88;2.67;;;;;;;24.83;46.33;100609.59;42101207;27;20426;-79
2023/09/10 02:29:46;;;;;;;2.85;2.53;;;;;;;24.92;45.99;100643.22;42099968;27;20039;-79
2023/09/10 02:49:46;;;;;;;2.88;2.53;;;;;;;24.94;46.04;100639.44;42099332;27;20048;-79
2023/09/10 03:09:49;;;;;;;2.90;2.70;;;;;;;24.98;46.23;100645.31;42091892;27;20044;-79
2023/09/10 03:29:50;;;;;;;2.88;2.63;;;;;;;24.61;45.92;100575.25;42096663;28;20051;-79
2023/09/10 03:49:50;;;;;;;3.00;2.70;;;;;;;25.01;45.98;100638.88;42072770;28;20038;-79
2023/09/10 04:09:50;;;;;;;2.75;2.53;;;;;;;24.97;45.86;100648.94;42082499;28;20044;-78
2023/09/10 04:29:52;;;;;;;2.72;2.53;;;;;;;24.97;45.92;100651.56;42085249;28;20048;-79
2023/09/10 04:49:53;;;;;;;3.00;2.70;;;;;;;24.65;45.93;100620.00;42074920;28;20036;-80
2023/09/10 05:09:54;;;;;;;3.95;3.10;;;;;;;25.03;46.11;100682.00;42076894;27;20487;-79
2023/09/10 05:29:54;;;;;;;2.88;2.60;;;;;;;24.87;46.03;100663.97;42108666;27;20037;-79
2023/09/10 05:49:55;;;;;;;3.05;2.75;;;;;;;24.81;45.94;100672.47;42107915;28;20043;-80
2023/09/10 06:09:55;;;;;;;3.22;2.92;;;;;;;24.77;45.78;100666.59;42081033;28;20051;-80
2023/09/10 06:29:56;;;;;;;3.60;2.90;;;;;;;24.79;46.12;100680.53;42080194;28;20060;-79
2023/09/10 06:49:56;;;;;;;2.90;2.60;;;;;;;24.77;46.10;100678.03;42086775;28;20728;-79
2023/09/10 07:09:56;;;;;;;3.65;2.63;;;;;;;24.89;45.75;100713.19;42084360;28;20417;-78
2023/09/10 07:29:57;;;;;;;2.67;2.47;;;;;;;24.77;46.08;100688.63;42090247;28;20048;-79
2023/09/10 07:49:57;;;;;;;3.78;2.75;;;;;;;24.98;46.16;100724.78;42095370;27;20058;-79
2023/09/10 08:09:58;;;;;;;2.67;2.45;;;;;;;25.15;45.82;100741.00;42086616;27;20064;-80
2023/09/10 08:29:58;;;;;;;2.78;2.50;;;;;;;24.69;45.86;100659.31;42066602;28;20040;-80
2023/09/10 08:50:06;;;;;;;2.67;2.42;;;;;;;25.01;46.06;100694.53;42082949;28;20040;-79
2023/09/10 09:10:09;;;;;;;2.83;2.45;;;;;;;25.22;46.24;100710.34;42080426;28;20046;-80
2023/09/10 09:30:11;;;;;;;2.58;2.38;;;;;;;25.03;45.95;100656.31;42079002;28;20081;-78
2023/09/10 09:50:13;;;;;;;2.55;2.35;;;;;;;25.37;45.67;100676.28;42079367;27;20048;-79
2023/09/10 10:10:15;;;;;;;2.67;2.47;;;;;;;25.39;45.78;100648.69;42094119;27;20052;-78
2023/09/10 10:30:16;;;;;;;2.30;2.10;;;;;;;25.55;45.39;100634.03;42110884;28;20032;-80
2023/09/10 10:50:24;;;;;;;13.48;3.13;;;;;;;25.91;47.53;100634.22;42005616;28;20048;-76
2023/09/10 11:10:27;;;;;;;11.48;3.75;;;;;;;26.20;45.55;100617.41;41993979;28;21321;-76
2023/09/10 11:30:27;;;;;;;17.95;4.70;;;;;;;26.35;43.34;100573.47;42006957;28;20072;-72
2023/09/10 11:50:28;;;;;;;9.90;4.00;;;;;;;26.42;41.47;100568.38;41998003;28;20159;-74
2023/09/10 12:10:30;;;;;;;6.05;3.67;;;;;;;26.63;40.86;100554.81;42007470;28;20125;-76
2023/09/10 12:30:32;;;;;;;7.10;3.97;;;;;;;26.52;39.94;100516.06;42000186;28;20161;-78
2023/09/10 12:50:32;;;;;;;6.22;4.13;;;;;;;27.16;37.43;100507.97;42011815;28;20127;-77
2023/09/10 13:10:33;;;;;;;7.35;4.40;;;;;;;26.56;39.33;100473.25;42007959;28;20127;-80
2023/09/10 13:30:33;;;;;;;6.35;3.88;;;;;;;27.08;37.94;100483.16;42003046;28;20131;-81
2023/09/10 13:50:34;;;;;;;6.95;3.80;;;;;;;27.39;36.73;100466.72;42026491;27;20056;-81
2023/09/10 14:10:35;;;;;;;5.15;3.90;;;;;;;27.42;37.01;100485.88;42061483;28;20104;-80
2023/09/10 14:30:35;;;;;;;9.00;3.88;;;;;;;27.49;37.40;100470.16;42015208;28;20044;-80
2023/09/10 14:50:37;;;;;;;5.75;3.67;;;;;;;27.08;36.68;100416.72;42018479;28;20081;-80
2023/09/10 15:10:40;;;;;;;4.65;3.63;;;;;;;27.30;37.00;100449.91;41994686;27;20043;-78
2023/09/10 15:30:41;;;;;;;12.50;6.18;;;;;;;27.63;37.48;100442.09;41997305;27;20044;-78
2023/09/10 15:50:42;;;;;;;6.25;4.43;;;;;;;27.31;36.64;100406.38;41963116;27;20040;-75
2023/09/10 16:10:42;;;;;;;7.88;4.78;;;;;;;27.29;36.36;100419.84;41955131;27;20044;-72
2023/09/10 16:30:44;;;;;;;9.48;4.47;;;;;;;27.10;39.08;100404.09;41952365;27;20044;-77
2023/09/10 16:50:47;;;;;;;7.55;4.10;;;;;;;26.87;39.00;100398.47;42010609;28;20045;-77
2023/09/10 17:10:48;;;;;;;15.27;4.28;;;;;;;26.87;36.99;100417.06;41999429;28;20083;-77
2023/09/10 17:30:49;;;;;;;7.65;5.03;;;;;;;26.65;37.54;100430.66;42001080;28;20103;-73
2023/09/10 17:50:50;;;;;;;9.40;5.32;;;;;;;26.19;39.08;100456.47;41999930;28;20549;-74
2023/09/10 18:10:54;;;;;;;10.82;6.40;;;;;;;25.96;39.69;100462.16;41916816;27;20040;-74
2023/09/10 18:31:05;;;;;;;12.10;6.35;;;;;;;25.25;42.52;100490.94;41970570;28;20125;-73
2023/09/10 18:51:07;;;;;;;9.30;6.20;;;;;;;25.73;41.08;100505.03;41946042;28;20089;-72
2023/09/10 19:11:08;;;;;;;11.15;6.68;;;;;;;24.88;43.49;100483.72;41951500;28;20050;-72
2023/09/10 19:31:13;;;;;;;14.98;7.70;;;;;;;24.73;44.95;100504.50;41994674;28;20052;-72
2023/09/10 19:51:13;;;;;;;18.08;9.40;;;;;;;24.35;45.68;100477.03;42008535;27;20071;-75
2023/09/10 20:11:17;;;;;;;19.15;9.60;;;;;;;24.30;46.48;100506.53;41936222;27;20041;-74
2023/09/10 20:31:18;;;;;;;18.83;9.13;;;;;;;23.92;47.33;100475.50;42052879;27;20178;-74
2023/09/10 20:51:27;;;;;;;17.92;9.57;;;;;;;23.85;48.68;100512.19;42072489;27;21274;-73
2023/09/10 21:11:28;;;;;;;13.75;8.77;;;;;;;24.07;48.16;100481.25;41961471;28;20078;-76
2023/09/10 21:31:28;;;;;;;12.63;8.25;;;;;;;24.17;47.68;100499.81;41924364;28;20126;-74
2023/09/10 21:51:29;;;;;;;13.75;7.57;;;;;;;23.81;47.73;100460.56;41960462;28;20440;-74
2023/09/10 22:11:30;;;;;;;10.27;6.88;;;;;;;23.78;47.68;100466.97;42003169;28;20080;-73
2023/09/10 22:31:31;;;;;;;11.50;7.38;;;;;;;23.55;47.81;100447.00;41976628;28;20139;-74
2023/09/10 22:51:31;;;;;;;13.57;6.93;;;;;;;23.52;48.23;100461.28;41999740;28;20047;-74
2023/09/10 23:11:32;;;;;;;14.80;7.40;;;;;;;23.50;48.37;100464.06;42024046;28;20052;-73
2023/09/10 23:31:32;;;;;;;9.40;6.40;;;;;;;23.32;48.53;100441.88;42029522;28;20083;-73
2023/09/10 23:51:32;;;;;;;11.77;6.63;;;;;;;23.30;48.71;100460.50;42015341;27;20076;-72
